createdAt,value
2018-07-19T00:00:08.869Z,19.00
2018-07-19T00:03:33.303Z,18.90
2018-07-19T00:06:57.781Z,18.80
2018-07-19T00:10:22.209Z,18.70
2018-07-19T00:13:46.657Z,18.70
2018-07-19T00:17:11.088Z,18.60
2018-07-19T00:20:35.546Z,18.50
2018-07-19T00:24:00.035Z,18.40
2018-07-19T00:27:24.983Z,18.30
2018-07-19T00:30:49.411Z,18.30
2018-07-19T00:34:13.869Z,18.20
2018-07-19T00:37:38.296Z,18.20
2018-07-19T00:41:02.937Z,18.20
2018-07-19T00:44:27.392Z,18.20
2018-07-19T00:47:51.859Z,18.20
2018-07-19T00:51:16.322Z,18.20
2018-07-19T00:54:40.783Z,18.10
2018-07-19T00:58:05.368Z,18.00
2018-07-19T01:01:29.891Z,17.80
2018-07-19T01:04:54.325Z,17.80
2018-07-19T01:08:18.755Z,17.70
2018-07-19T01:11:43.219Z,17.60
2018-07-19T01:15:07.716Z,17.60
2018-07-19T01:18:32.208Z,17.50
2018-07-19T01:21:56.659Z,17.50
2018-07-19T01:25:21.092Z,17.50
2018-07-19T01:28:45.543Z,17.40
2018-07-19T01:32:10.551Z,17.40
2018-07-19T01:35:34.997Z,17.40
2018-07-19T01:38:59.424Z,17.40
2018-07-19T01:42:36.066Z,17.40
2018-07-19T01:46:00.540Z,17.30
2018-07-19T01:49:24.981Z,17.30
2018-07-19T01:52:49.425Z,17.30
2018-07-19T01:56:13.908Z,17.30
2018-07-19T01:59:38.354Z,17.20
2018-07-19T02:03:02.811Z,17.20
2018-07-19T02:06:27.300Z,17.10
2018-07-19T02:09:51.784Z,17.10
2018-07-19T02:13:16.226Z,17.00
2018-07-19T02:16:40.676Z,16.90
2018-07-19T02:20:05.193Z,16.90
2018-07-19T02:23:29.737Z,16.90
2018-07-19T02:26:54.210Z,16.90
2018-07-19T02:30:18.751Z,16.90
2018-07-19T02:33:43.190Z,16.90
2018-07-19T02:37:07.692Z,16.90
2018-07-19T02:40:32.183Z,16.80
2018-07-19T02:43:56.707Z,16.80
2018-07-19T02:47:21.115Z,16.80
2018-07-19T02:50:45.568Z,16.70
2018-07-19T02:54:10.176Z,16.70
2018-07-19T02:57:34.655Z,16.50
2018-07-19T03:00:59.125Z,16.50
2018-07-19T03:04:23.570Z,16.40
2018-07-19T03:07:48.101Z,16.30
2018-07-19T03:11:12.434Z,16.30
2018-07-19T03:14:36.875Z,16.30
2018-07-19T03:18:01.302Z,16.30
2018-07-19T03:21:25.805Z,16.20
2018-07-19T03:24:50.282Z,16.20
2018-07-19T03:28:14.733Z,16.20
2018-07-19T03:31:39.193Z,16.20
2018-07-19T03:35:03.651Z,16.10
2018-07-19T03:38:28.125Z,16.10
2018-07-19T03:41:52.570Z,16.10
2018-07-19T03:45:17.035Z,16.10
2018-07-19T03:48:41.470Z,16.10
2018-07-19T03:52:06.035Z,16.00
2018-07-19T03:55:30.505Z,16.10
2018-07-19T03:58:55.014Z,16.20
2018-07-19T04:02:19.439Z,16.20
2018-07-19T04:05:43.873Z,16.30
2018-07-19T04:09:08.862Z,16.50
2018-07-19T04:12:33.299Z,16.60
2018-07-19T04:15:57.723Z,16.70
2018-07-19T04:19:22.163Z,16.90
2018-07-19T04:22:46.692Z,17.00
2018-07-19T04:26:11.336Z,17.10
2018-07-19T04:29:35.790Z,17.20
2018-07-19T04:33:00.248Z,17.30
2018-07-19T04:36:24.714Z,17.30
2018-07-19T04:39:49.237Z,17.30
2018-07-19T04:43:13.711Z,17.40
2018-07-19T04:46:38.195Z,17.40
2018-07-19T04:50:02.622Z,17.40
2018-07-19T04:53:27.060Z,17.50
2018-07-19T04:56:51.484Z,17.60
2018-07-19T05:00:15.971Z,17.70
2018-07-19T05:03:40.436Z,17.90
2018-07-19T05:07:04.917Z,18.10
2018-07-19T05:10:29.415Z,18.10
2018-07-19T05:13:53.910Z,18.20
2018-07-19T05:17:18.358Z,18.20
2018-07-19T05:20:42.866Z,18.40
2018-07-19T05:24:07.476Z,18.50
2018-07-19T05:27:31.918Z,18.60
2018-07-19T05:30:56.389Z,18.80
2018-07-19T05:34:20.862Z,18.90
2018-07-19T05:37:45.339Z,19.10
2018-07-19T05:41:09.945Z,19.20
2018-07-19T05:44:34.389Z,19.40
2018-07-19T05:47:58.864Z,19.60
2018-07-19T05:51:23.361Z,19.80
2018-07-19T05:54:47.882Z,20.00
2018-07-19T05:58:12.367Z,20.10
2018-07-19T06:01:36.763Z,20.30
2018-07-19T06:05:01.231Z,20.40
2018-07-19T06:08:25.724Z,20.50
2018-07-19T06:11:50.196Z,20.50
2018-07-19T06:15:14.744Z,20.60
2018-07-19T06:18:39.292Z,20.80
2018-07-19T06:22:03.723Z,21.00
2018-07-19T06:25:28.197Z,21.10
2018-07-19T06:28:52.644Z,21.10
2018-07-19T06:32:17.196Z,21.20
2018-07-19T06:35:41.782Z,21.20
2018-07-19T06:39:08.455Z,21.20
2018-07-19T06:42:32.932Z,21.50
2018-07-19T06:45:57.465Z,21.50
2018-07-19T06:49:21.947Z,21.50
2018-07-19T06:52:46.401Z,21.50
2018-07-19T06:56:10.893Z,21.40
2018-07-19T06:59:35.397Z,21.30
2018-07-19T07:02:59.847Z,21.20
2018-07-19T07:06:24.306Z,21.20
2018-07-19T07:09:48.769Z,21.10
2018-07-19T07:13:13.275Z,21.20
2018-07-19T07:16:37.799Z,21.50
2018-07-19T07:20:02.255Z,21.60
2018-07-19T07:23:26.739Z,21.80
2018-07-19T07:26:51.210Z,22.10
2018-07-19T07:30:15.742Z,22.50
2018-07-19T07:33:40.240Z,22.70
2018-07-19T07:37:04.687Z,22.90
2018-07-19T07:40:29.180Z,23.00
2018-07-19T07:43:53.702Z,23.10
2018-07-19T07:47:18.229Z,23.20
2018-07-19T07:50:42.761Z,23.30
2018-07-19T07:54:07.230Z,23.40
2018-07-19T07:57:31.684Z,23.50
2018-07-19T08:00:56.164Z,23.60
2018-07-19T08:04:20.654Z,23.70
2018-07-19T08:07:45.180Z,23.80
2018-07-19T08:11:09.676Z,24.00
2018-07-19T08:14:34.243Z,24.10
2018-07-19T08:17:58.720Z,23.90
2018-07-19T08:21:23.171Z,23.80
2018-07-19T08:24:47.628Z,23.60
2018-07-19T08:28:12.116Z,23.50
2018-07-19T08:31:36.581Z,23.50
2018-07-19T08:35:01.088Z,23.40
2018-07-19T08:38:25.585Z,23.40
2018-07-19T08:41:50.052Z,23.40
2018-07-19T08:45:14.506Z,23.50
2018-07-19T08:48:38.948Z,23.50
2018-07-19T08:52:03.548Z,23.50
2018-07-19T08:55:27.998Z,23.60
2018-07-19T08:58:52.499Z,23.80
2018-07-19T09:02:17.085Z,23.90
2018-07-19T09:05:41.519Z,24.00
2018-07-19T09:09:09.094Z,24.20
2018-07-19T09:12:33.514Z,24.40
2018-07-19T09:15:57.974Z,24.60
2018-07-19T09:19:22.502Z,24.80
2018-07-19T09:22:46.961Z,24.80
2018-07-19T09:26:11.558Z,24.90
2018-07-19T09:29:35.995Z,24.90
2018-07-19T09:33:00.489Z,25.00
2018-07-19T09:36:24.969Z,25.20
2018-07-19T09:39:49.388Z,25.50
2018-07-19T09:43:13.871Z,25.70
2018-07-19T09:46:38.325Z,25.90
2018-07-19T09:50:02.792Z,26.20
2018-07-19T09:53:27.215Z,26.50
2018-07-19T09:56:51.667Z,26.60
2018-07-19T10:00:20.189Z,26.70
2018-07-19T10:07:08.831Z,27.00
2018-07-19T10:10:33.273Z,26.70
2018-07-19T10:13:57.698Z,26.40
2018-07-19T10:17:22.215Z,26.40
2018-07-19T10:20:46.682Z,26.40
2018-07-19T10:24:11.195Z,26.40
2018-07-19T10:27:35.619Z,26.50
2018-07-19T10:31:00.092Z,26.40
2018-07-19T10:34:24.589Z,26.30
2018-07-19T10:37:49.016Z,26.50
2018-07-19T10:41:13.474Z,27.40
2018-07-19T10:44:37.922Z,28.70
2018-07-19T10:48:02.459Z,29.70
2018-07-19T10:51:26.911Z,30.10
2018-07-19T10:54:51.330Z,29.80
2018-07-19T10:58:15.767Z,29.10
2018-07-19T11:01:40.221Z,28.50
2018-07-19T11:05:05.092Z,28.90
2018-07-19T11:08:29.571Z,30.20
2018-07-19T11:11:54.043Z,31.40
2018-07-19T11:15:18.507Z,31.60
2018-07-19T11:18:42.989Z,30.70
2018-07-19T11:22:07.525Z,29.80
2018-07-19T11:25:31.988Z,29.50
2018-07-19T11:28:56.425Z,30.90
2018-07-19T11:32:20.863Z,32.70
2018-07-19T11:35:45.330Z,33.90
2018-07-19T11:39:10.153Z,34.80
2018-07-19T11:42:34.594Z,35.90
2018-07-19T11:45:59.027Z,36.30
2018-07-19T11:49:23.625Z,36.50
2018-07-19T11:52:48.053Z,37.00
2018-07-19T11:56:12.541Z,36.00
2018-07-19T11:59:36.962Z,35.70
2018-07-19T12:03:01.449Z,36.10
2018-07-19T12:06:25.903Z,36.70
2018-07-19T12:09:50.361Z,36.60
2018-07-19T12:13:14.799Z,36.90
2018-07-19T12:16:39.245Z,37.60
2018-07-19T12:20:03.700Z,37.80
2018-07-19T12:23:28.130Z,37.70
2018-07-19T12:26:52.873Z,37.80
2018-07-19T12:30:17.277Z,37.60
2018-07-19T12:33:41.704Z,37.30
2018-07-19T12:37:06.140Z,37.30
2018-07-19T12:40:30.703Z,37.50
2018-07-19T12:43:55.149Z,37.20
2018-07-19T12:47:19.591Z,37.90
2018-07-19T12:50:44.049Z,37.30
2018-07-19T12:54:08.539Z,37.80
2018-07-19T12:57:32.985Z,36.50
2018-07-19T13:00:57.424Z,36.10
2018-07-19T13:04:21.846Z,36.60
2018-07-19T13:07:46.287Z,37.60
2018-07-19T13:11:10.826Z,38.50
2018-07-19T13:14:41.955Z,40.00
2018-07-19T13:18:06.395Z,40.30
2018-07-19T13:21:30.900Z,40.10
2018-07-19T13:24:55.340Z,39.80
2018-07-19T13:28:19.867Z,40.00
2018-07-19T13:31:44.338Z,40.20
2018-07-19T13:35:08.792Z,39.80
2018-07-19T13:38:33.212Z,38.90
2018-07-19T13:41:57.664Z,39.40
2018-07-19T13:45:22.115Z,40.50
2018-07-19T13:48:46.566Z,41.50
2018-07-19T13:52:11.096Z,40.80
2018-07-19T13:55:35.499Z,40.50
2018-07-19T13:58:59.982Z,39.70
2018-07-19T14:02:24.497Z,39.70
2018-07-19T14:05:48.939Z,39.50
2018-07-19T14:09:15.403Z,39.90
2018-07-19T14:12:39.852Z,40.70
2018-07-19T14:16:04.361Z,40.80
2018-07-19T14:19:28.816Z,39.20
2018-07-19T14:22:53.263Z,37.50
2018-07-19T14:26:17.735Z,36.30
2018-07-19T14:29:42.184Z,35.10
2018-07-19T14:33:06.853Z,34.60
2018-07-19T14:36:31.333Z,33.90
2018-07-19T14:39:55.769Z,33.30
2018-07-19T14:43:20.254Z,33.00
2018-07-19T14:46:44.693Z,33.00
2018-07-19T14:50:09.111Z,33.00
2018-07-19T14:53:33.507Z,33.30
2018-07-19T14:56:57.960Z,33.70
2018-07-19T15:00:22.396Z,33.40
2018-07-19T15:03:46.800Z,33.20
2018-07-19T15:07:11.258Z,32.80
2018-07-19T15:10:35.698Z,33.00
2018-07-19T15:14:00.147Z,34.60
2018-07-19T15:17:24.568Z,36.60
2018-07-19T15:20:49.038Z,36.00
2018-07-19T15:24:13.461Z,35.40
2018-07-19T15:27:37.886Z,34.90
2018-07-19T15:31:02.317Z,34.40
2018-07-19T15:34:26.783Z,33.80
2018-07-19T15:37:51.232Z,33.20
2018-07-19T15:41:15.684Z,32.80
2018-07-19T15:44:40.111Z,32.60
2018-07-19T15:48:04.663Z,32.50
2018-07-19T15:51:29.085Z,32.60
2018-07-19T15:54:53.525Z,33.00
2018-07-19T15:58:18.023Z,35.90
2018-07-19T16:01:42.474Z,38.90
2018-07-19T16:05:07.082Z,40.20
2018-07-19T16:08:31.537Z,41.30
2018-07-19T16:11:56.018Z,42.00
2018-07-19T16:15:20.442Z,41.10
2018-07-19T16:18:44.854Z,39.10
2018-07-19T16:22:09.310Z,38.10
2018-07-19T16:25:33.749Z,36.80
2018-07-19T16:28:58.206Z,35.10
2018-07-19T16:32:22.665Z,34.30
2018-07-19T16:35:47.116Z,33.80
2018-07-19T16:39:11.904Z,33.60
2018-07-19T16:42:36.329Z,33.80
2018-07-19T16:46:00.749Z,33.80
2018-07-19T16:49:25.170Z,33.50
2018-07-19T16:52:49.702Z,33.30
2018-07-19T16:56:14.141Z,33.60
2018-07-19T16:59:38.579Z,34.30
2018-07-19T17:03:03.013Z,34.00
2018-07-19T17:06:27.497Z,33.00
2018-07-19T17:09:51.925Z,32.60
2018-07-19T17:13:16.382Z,31.90
2018-07-19T17:16:40.833Z,31.50
2018-07-19T17:20:05.551Z,31.20
2018-07-19T17:23:30.361Z,31.00
2018-07-19T17:26:54.765Z,31.00
2018-07-19T17:30:19.245Z,31.00
2018-07-19T17:33:43.704Z,30.90
2018-07-19T17:37:08.137Z,30.90
2018-07-19T17:40:32.639Z,31.10
2018-07-19T17:43:57.055Z,31.20
2018-07-19T17:47:21.550Z,31.00
2018-07-19T17:50:46.042Z,31.00
2018-07-19T17:54:10.480Z,30.80
2018-07-19T17:57:34.949Z,30.70
2018-07-19T18:00:59.404Z,30.40
2018-07-19T18:04:23.926Z,30.20
2018-07-19T18:07:48.497Z,30.10
2018-07-19T18:11:12.937Z,29.80
2018-07-19T18:14:37.430Z,29.50
2018-07-19T18:18:01.887Z,29.40
2018-07-19T18:21:26.338Z,29.30
2018-07-19T18:24:50.855Z,29.10
2018-07-19T18:28:15.313Z,28.90
2018-07-19T18:31:39.758Z,28.70
2018-07-19T18:35:04.236Z,28.40
2018-07-19T18:38:28.675Z,28.20
2018-07-19T18:41:53.120Z,28.00
2018-07-19T18:45:17.555Z,27.80
2018-07-19T18:48:41.989Z,27.50
2018-07-19T18:52:06.532Z,27.30
2018-07-19T18:55:30.990Z,27.10
2018-07-19T18:58:55.410Z,27.00
2018-07-19T19:02:20.915Z,26.80
2018-07-19T19:05:45.386Z,26.60
2018-07-19T19:09:11.247Z,26.40
2018-07-19T19:12:35.713Z,26.30
2018-07-19T19:16:00.201Z,26.10
2018-07-19T19:19:24.649Z,26.00
2018-07-19T19:22:49.090Z,25.80
2018-07-19T19:26:13.536Z,25.60
2018-07-19T19:29:38.028Z,25.40
2018-07-19T19:33:02.480Z,25.20
2018-07-19T19:36:26.970Z,25.00
2018-07-19T19:39:51.438Z,24.80
2018-07-19T19:43:15.896Z,24.70
2018-07-19T19:46:40.329Z,24.50
2018-07-19T19:50:04.967Z,24.40
2018-07-19T19:53:29.434Z,24.20
2018-07-19T19:56:54.742Z,24.20
2018-07-19T20:00:19.174Z,24.10
2018-07-19T20:03:43.578Z,24.00
2018-07-19T20:07:07.985Z,24.00
2018-07-19T20:10:32.492Z,24.00
2018-07-19T20:13:56.969Z,24.00
2018-07-19T20:17:21.417Z,23.90
2018-07-19T20:20:46.013Z,23.90
2018-07-19T20:24:10.433Z,23.90
2018-07-19T20:27:34.869Z,23.90
2018-07-19T20:30:59.326Z,23.80
2018-07-19T20:34:23.766Z,23.70
2018-07-19T20:37:48.222Z,23.60
2018-07-19T20:41:12.742Z,23.50
2018-07-19T20:44:37.485Z,23.40
2018-07-19T20:48:01.922Z,23.30
2018-07-19T20:51:26.346Z,23.20
2018-07-19T20:54:50.775Z,23.10
2018-07-19T20:58:15.213Z,23.10
2018-07-19T21:01:39.677Z,23.00
2018-07-19T21:05:04.199Z,23.00
2018-07-19T21:08:28.648Z,22.90
2018-07-19T21:11:53.088Z,22.80
2018-07-19T21:15:17.529Z,22.70
2018-07-19T21:18:41.961Z,22.60
2018-07-19T21:22:06.496Z,22.50
2018-07-19T21:25:30.933Z,22.40
2018-07-19T21:28:55.355Z,22.30
2018-07-19T21:32:19.783Z,22.30
2018-07-19T21:35:44.191Z,22.20
2018-07-19T21:39:11.093Z,22.20
2018-07-19T21:42:35.520Z,22.10
2018-07-19T21:45:59.956Z,22.00
2018-07-19T21:49:24.410Z,21.90
2018-07-19T21:52:48.854Z,21.80
2018-07-19T21:56:13.324Z,21.70
2018-07-19T21:59:37.724Z,21.50
2018-07-19T22:03:02.236Z,21.50
2018-07-19T22:06:26.671Z,21.30
2018-07-19T22:09:51.067Z,21.20
2018-07-19T22:13:15.525Z,21.20
2018-07-19T22:16:40.940Z,21.20
2018-07-19T22:20:05.552Z,21.10
2018-07-19T22:23:29.995Z,21.00
2018-07-19T22:26:54.418Z,21.00
2018-07-19T22:30:18.869Z,20.90
2018-07-19T22:33:43.296Z,20.80
2018-07-19T22:37:07.712Z,20.80
2018-07-19T22:40:32.192Z,20.70
2018-07-19T22:43:56.647Z,20.60
2018-07-19T22:47:21.096Z,20.60
2018-07-19T22:54:09.682Z,20.40
2018-07-19T22:57:34.107Z,20.20
2018-07-19T23:00:58.511Z,20.10
2018-07-19T23:04:22.923Z,19.90
2018-07-19T23:07:47.359Z,19.90
2018-07-19T23:11:11.773Z,19.80
2018-07-19T23:14:36.205Z,19.70
2018-07-19T23:18:00.666Z,19.60
2018-07-19T23:21:25.094Z,19.60
2018-07-19T23:24:49.546Z,19.50
2018-07-19T23:28:13.992Z,19.50
2018-07-19T23:31:38.507Z,19.50
2018-07-19T23:35:02.965Z,19.50
2018-07-19T23:39:31.242Z,19.40
2018-07-19T23:43:02.826Z,19.30
2018-07-19T23:46:31.377Z,19.30
2018-07-19T23:49:55.792Z,19.20
2018-07-19T23:53:20.284Z,19.10
2018-07-19T23:56:44.730Z,18.90
